createdAt,value
2019-04-10T00:01:19.611Z,53.79
2019-04-10T00:05:27.740Z,53.48
2019-04-10T00:09:32.926Z,53.92
2019-04-10T00:13:38.531Z,53.79
2019-04-10T00:17:45.438Z,54.05
2019-04-10T00:21:50.614Z,53.97
2019-04-10T00:25:55.867Z,53.91
2019-04-10T00:30:01.098Z,54.06
2019-04-10T00:34:07.382Z,54.31
2019-04-10T00:38:13.595Z,54.17
2019-04-10T00:42:19.027Z,54.17
2019-04-10T00:46:24.347Z,54.54
2019-04-10T00:50:30.625Z,54.38
2019-04-10T00:54:35.934Z,54.70
2019-04-10T00:58:41.598Z,54.83
2019-04-10T01:02:47.091Z,55.15
2019-04-10T01:06:52.540Z,55.59
2019-04-10T01:11:01.022Z,55.27
2019-04-10T01:15:06.922Z,55.87
2019-04-10T01:19:12.170Z,55.72
2019-04-10T01:23:17.377Z,55.83
2019-04-10T01:27:23.600Z,56.01
2019-04-10T01:31:28.910Z,56.40
2019-04-10T01:35:34.386Z,56.45
2019-04-10T01:39:40.247Z,56.65
2019-04-10T01:43:45.509Z,56.77
2019-04-10T01:47:51.721Z,57.20
2019-04-10T01:51:57.399Z,57.15
2019-04-10T01:56:03.166Z,57.30
2019-04-10T02:00:13.211Z,57.63
2019-04-10T02:04:18.484Z,58.06
2019-04-10T02:08:23.976Z,57.95
2019-04-10T02:12:29.211Z,58.17
2019-04-10T02:16:34.763Z,58.46
2019-04-10T02:20:39.984Z,58.68
2019-04-10T02:24:45.785Z,58.68
2019-04-10T02:28:51.389Z,58.90
2019-04-10T02:32:57.984Z,58.87
2019-04-10T02:37:03.206Z,58.85
2019-04-10T02:41:10.050Z,58.88
2019-04-10T02:45:16.886Z,59.09
2019-04-10T02:49:22.574Z,58.76
2019-04-10T02:53:27.750Z,58.62
2019-04-10T02:57:33.767Z,58.77
2019-04-10T03:01:39.981Z,58.88
2019-04-10T03:05:46.571Z,59.04
2019-04-10T03:10:05.038Z,59.09
2019-04-10T03:14:04.364Z,58.78
2019-04-10T03:18:09.733Z,58.97
2019-04-10T03:22:14.931Z,58.97
2019-04-10T03:26:20.114Z,59.22
2019-04-10T03:30:27.197Z,59.30
2019-04-10T03:34:36.492Z,59.40
2019-04-10T03:38:54.220Z,59.57
2019-04-10T03:42:47.441Z,59.65
2019-04-10T03:46:53.864Z,59.91
2019-04-10T03:50:59.108Z,60.30
2019-04-10T03:55:04.945Z,59.96
2019-04-10T03:59:10.216Z,60.30
2019-04-10T04:03:16.126Z,60.59
2019-04-10T04:07:21.356Z,60.50
2019-04-10T04:11:26.558Z,60.66
2019-04-10T04:15:32.281Z,61.00
2019-04-10T04:19:38.013Z,60.66
2019-04-10T04:23:43.133Z,61.04
2019-04-10T04:27:48.273Z,61.56
2019-04-10T04:31:54.509Z,62.26
2019-04-10T04:35:59.996Z,61.79
2019-04-10T04:40:05.540Z,62.10
2019-04-10T04:44:10.715Z,61.44
2019-04-10T04:48:17.010Z,61.78
2019-04-10T04:52:22.204Z,62.61
2019-04-10T04:56:28.221Z,62.07
2019-04-10T05:00:34.052Z,62.68
2019-04-10T05:04:39.636Z,62.15
2019-04-10T05:08:44.826Z,62.85
2019-04-10T05:12:50.183Z,62.30
2019-04-10T05:16:55.508Z,63.01
2019-04-10T05:21:03.789Z,62.45
2019-04-10T05:25:09.138Z,62.44
2019-04-10T05:29:15.382Z,63.82
2019-04-10T05:33:20.651Z,62.50
2019-04-10T05:37:25.905Z,62.69
2019-04-10T05:41:31.445Z,62.02
2019-04-10T05:45:36.618Z,61.69
2019-04-10T05:49:41.809Z,62.40
2019-04-10T05:53:47.886Z,62.16
2019-04-10T05:57:53.874Z,62.91
2019-04-10T06:01:59.042Z,61.75
2019-04-10T06:06:04.197Z,61.60
2019-04-10T06:10:10.832Z,60.98
2019-04-10T06:14:16.329Z,60.59
2019-04-10T06:18:22.770Z,60.77
2019-04-10T06:22:28.468Z,60.59
2019-04-10T06:26:35.481Z,60.82
2019-04-10T06:30:41.880Z,60.61
2019-04-10T06:34:47.867Z,60.56
2019-04-10T06:38:55.106Z,60.25
2019-04-10T06:43:01.033Z,59.75
2019-04-10T06:47:06.448Z,59.36
2019-04-10T06:51:12.859Z,58.97
2019-04-10T06:55:18.580Z,58.52
2019-04-10T06:59:23.847Z,58.37
2019-04-10T07:03:46.951Z,57.70
2019-04-10T07:07:49.878Z,57.04
2019-04-10T07:11:42.951Z,56.51
2019-04-10T07:15:48.146Z,56.97
2019-04-10T07:19:55.545Z,56.36
2019-04-10T07:24:05.043Z,56.29
2019-04-10T07:28:09.726Z,55.76
2019-04-10T07:32:15.055Z,55.61
2019-04-10T07:36:20.458Z,55.68
2019-04-10T07:40:25.617Z,54.78
2019-04-10T07:44:31.109Z,53.81
2019-04-10T07:48:36.412Z,53.25
2019-04-10T07:52:41.642Z,53.22
2019-04-10T07:56:47.248Z,53.26
2019-04-10T08:00:53.331Z,52.16
2019-04-10T08:04:58.619Z,52.40
2019-04-10T08:09:06.388Z,52.64
2019-04-10T08:13:12.186Z,51.73
2019-04-10T08:17:17.314Z,51.73
2019-04-10T08:21:22.398Z,51.32
2019-04-10T08:25:35.304Z,50.36
2019-04-10T08:29:40.903Z,49.73
2019-04-10T08:33:46.755Z,49.73
2019-04-10T08:37:52.791Z,48.97
2019-04-10T08:42:00.541Z,48.50
2019-04-10T08:46:06.789Z,48.50
2019-04-10T08:50:12.376Z,47.92
2019-04-10T08:54:18.467Z,47.49
2019-04-10T08:58:23.539Z,45.61
2019-04-10T09:02:30.406Z,45.76
2019-04-10T09:06:38.188Z,45.11
2019-04-10T09:10:43.454Z,46.28
2019-04-10T09:14:49.571Z,46.57
2019-04-10T09:18:59.822Z,46.28
2019-04-10T09:23:29.795Z,45.21
2019-04-10T09:27:21.285Z,44.77
2019-04-10T09:31:28.046Z,45.89
2019-04-10T09:35:36.293Z,45.78
2019-04-10T09:39:47.964Z,44.81
2019-04-10T09:43:54.288Z,44.81
2019-04-10T09:47:59.993Z,44.96
2019-04-10T09:52:05.278Z,43.15
2019-04-10T09:56:11.531Z,43.72
2019-04-10T10:00:17.459Z,43.10
2019-04-10T10:04:23.655Z,42.42
2019-04-10T10:08:28.944Z,41.50
2019-04-10T10:12:34.347Z,41.53
2019-04-10T10:16:40.043Z,41.44
2019-04-10T10:20:45.999Z,42.15
2019-04-10T10:24:51.287Z,40.80
2019-04-10T10:28:56.691Z,41.79
2019-04-10T10:33:01.811Z,39.32
2019-04-10T10:37:10.409Z,38.50
2019-04-10T10:41:16.455Z,39.64
2019-04-10T10:45:22.894Z,39.42
2019-04-10T10:49:28.591Z,38.61
2019-04-10T10:53:34.551Z,39.17
2019-04-10T10:57:39.758Z,39.09
2019-04-10T11:01:46.339Z,37.17
2019-04-10T11:05:52.764Z,36.65
2019-04-10T11:09:58.592Z,36.41
2019-04-10T11:14:04.706Z,37.89
2019-04-10T11:18:10.762Z,36.84
2019-04-10T11:22:21.809Z,36.00
2019-04-10T11:26:24.221Z,36.03
2019-04-10T11:30:32.392Z,36.07
2019-04-10T11:34:38.207Z,34.38
2019-04-10T11:38:45.375Z,34.38
2019-04-10T11:42:52.651Z,34.52
2019-04-10T11:46:58.907Z,34.44
2019-04-10T11:51:06.738Z,35.54
2019-04-10T11:55:16.113Z,35.48
2019-04-10T11:59:22.064Z,36.10
2019-04-10T12:03:27.157Z,35.35
2019-04-10T12:11:42.605Z,35.44
2019-04-10T12:15:48.412Z,36.42
2019-04-10T12:19:54.325Z,35.67
2019-04-10T12:24:01.146Z,34.99
2019-04-10T12:28:06.622Z,35.04
2019-04-10T12:32:12.417Z,36.18
2019-04-10T12:36:18.368Z,35.49
2019-04-10T12:40:23.603Z,35.53
2019-04-10T12:44:29.643Z,33.74
2019-04-10T12:48:34.927Z,33.76
2019-04-10T12:52:40.907Z,33.42
2019-04-10T12:56:46.435Z,33.35
2019-04-10T13:00:52.159Z,34.30
2019-04-10T13:04:58.724Z,33.17
2019-04-10T13:09:10.732Z,33.70
2019-04-10T13:13:14.325Z,33.77
2019-04-10T13:17:20.258Z,32.66
2019-04-10T13:21:26.388Z,32.64
2019-04-10T13:25:35.208Z,33.20
2019-04-10T13:29:52.216Z,33.28
2019-04-10T13:34:05.862Z,32.55
2019-04-10T13:38:11.161Z,31.11
2019-04-10T13:42:16.865Z,29.95
2019-04-10T13:46:22.013Z,31.99
2019-04-10T13:50:27.173Z,32.36
2019-04-10T13:54:32.990Z,29.95
2019-04-10T13:58:38.371Z,31.20
2019-04-10T14:02:43.713Z,31.55
2019-04-10T14:06:49.359Z,31.60
2019-04-10T14:10:57.100Z,29.29
2019-04-10T14:15:14.028Z,30.02
2019-04-10T14:19:25.532Z,30.24
2019-04-10T14:23:31.445Z,30.64
2019-04-10T14:27:40.821Z,30.21
2019-04-10T14:31:53.182Z,29.83
2019-04-10T14:36:03.414Z,28.34
2019-04-10T14:40:22.145Z,28.74
2019-04-10T14:44:36.783Z,28.21
2019-04-10T14:48:46.689Z,28.20
2019-04-10T14:52:51.965Z,28.44
2019-04-10T14:57:11.353Z,27.65
2019-04-10T15:01:17.680Z,30.04
2019-04-10T15:05:23.775Z,30.60
2019-04-10T15:09:28.978Z,29.89
2019-04-10T15:13:34.084Z,29.09
2019-04-10T15:17:40.246Z,29.56
2019-04-10T15:21:45.511Z,29.08
2019-04-10T15:25:57.704Z,30.83
2019-04-10T15:30:06.240Z,30.14
2019-04-10T15:34:11.957Z,30.80
2019-04-10T15:38:18.554Z,30.11
2019-04-10T15:42:27.819Z,28.67
2019-04-10T15:46:33.244Z,30.98
2019-04-10T15:50:39.355Z,30.37
2019-04-10T15:54:45.893Z,29.17
2019-04-10T15:58:52.023Z,29.26
2019-04-10T16:02:57.752Z,29.06
2019-04-10T16:07:04.149Z,28.94
2019-04-10T16:11:36.190Z,30.39
2019-04-10T16:15:42.887Z,29.95
2019-04-10T16:19:59.824Z,30.67
2019-04-10T16:24:09.376Z,31.03
2019-04-10T16:28:29.254Z,30.72
2019-04-10T16:32:37.998Z,29.76
2019-04-10T16:36:54.278Z,30.99
2019-04-10T16:41:02.674Z,31.26
2019-04-10T16:45:15.823Z,30.85
2019-04-10T16:49:22.419Z,32.15
2019-04-10T16:53:27.997Z,31.91
2019-04-10T16:57:33.181Z,30.53
2019-04-10T17:01:39.234Z,32.92
2019-04-10T17:05:44.466Z,31.96
2019-04-10T17:09:50.437Z,32.80
2019-04-10T17:13:57.185Z,32.49
2019-04-10T17:18:03.146Z,33.00
2019-04-10T17:22:08.983Z,33.13
2019-04-10T17:26:14.956Z,33.16
2019-04-10T17:30:25.355Z,34.06
2019-04-10T17:34:32.752Z,33.37
2019-04-10T17:38:42.496Z,33.67
2019-04-10T17:42:48.638Z,33.86
2019-04-10T17:46:55.593Z,35.42
2019-04-10T17:51:03.830Z,35.96
2019-04-10T17:55:11.496Z,35.82
2019-04-10T17:59:18.428Z,37.56
2019-04-10T18:03:46.036Z,38.36
2019-04-10T18:07:48.133Z,38.80
2019-04-10T18:12:27.946Z,39.24
2019-04-10T18:16:36.086Z,39.81
2019-04-10T18:20:43.003Z,40.09
2019-04-10T18:24:49.542Z,40.82
2019-04-10T18:28:54.752Z,41.34
2019-04-10T18:33:00.315Z,41.71
2019-04-10T18:37:05.653Z,41.85
2019-04-10T18:41:11.773Z,41.88
2019-04-10T18:45:17.582Z,42.40
2019-04-10T18:49:23.200Z,42.78
2019-04-10T18:53:28.940Z,42.55
2019-04-10T18:57:35.670Z,42.58
2019-04-10T19:02:12.285Z,42.69
2019-04-10T19:06:22.848Z,42.72
2019-04-10T19:10:28.692Z,42.88
2019-04-10T19:14:37.120Z,42.82
2019-04-10T19:19:02.059Z,43.15
2019-04-10T19:23:07.335Z,42.95
2019-04-10T19:27:12.689Z,43.48
2019-04-10T19:31:23.032Z,43.71
2019-04-10T19:35:28.782Z,43.71
2019-04-10T19:39:34.220Z,42.86
2019-04-10T19:43:40.232Z,43.60
2019-04-10T19:47:46.361Z,43.12
2019-04-10T19:51:51.825Z,43.84
2019-04-10T19:55:56.965Z,42.89
2019-04-10T20:00:02.648Z,44.02
2019-04-10T20:04:08.269Z,43.47
2019-04-10T20:08:13.769Z,43.57
2019-04-10T20:12:20.255Z,43.93
2019-04-10T20:16:25.534Z,43.72
2019-04-10T20:20:31.155Z,43.63
2019-04-10T20:24:36.749Z,43.36
2019-04-10T20:28:41.956Z,43.69
2019-04-10T20:32:47.276Z,44.46
2019-04-10T20:36:53.298Z,44.15
2019-04-10T20:40:58.780Z,45.17
2019-04-10T20:45:05.186Z,44.08
2019-04-10T20:49:10.420Z,44.62
2019-04-10T20:53:15.967Z,45.20
2019-04-10T20:57:21.516Z,45.14
2019-04-10T21:01:26.767Z,45.51
2019-04-10T21:05:31.956Z,45.13
2019-04-10T21:09:37.411Z,45.49
2019-04-10T21:13:42.633Z,45.79
2019-04-10T21:17:48.682Z,45.73
2019-04-10T21:21:55.441Z,46.59
2019-04-10T21:26:00.711Z,46.07
2019-04-10T21:30:29.849Z,46.80
2019-04-10T21:34:39.195Z,47.03
2019-04-10T21:38:45.199Z,47.26
2019-04-10T21:42:51.934Z,46.96
2019-04-10T21:46:57.248Z,47.44
2019-04-10T21:51:02.637Z,47.97
2019-04-10T21:55:07.847Z,48.06
2019-04-10T21:59:14.835Z,47.84
2019-04-10T22:03:21.022Z,48.59
2019-04-10T22:07:34.546Z,48.34
2019-04-10T22:11:41.311Z,49.24
2019-04-10T22:15:47.418Z,48.54
2019-04-10T22:19:52.864Z,48.50
2019-04-10T22:23:58.965Z,48.63
2019-04-10T22:28:04.320Z,49.08
2019-04-10T22:32:10.717Z,49.29
2019-04-10T22:36:17.083Z,49.65
2019-04-10T22:40:23.513Z,49.90
2019-04-10T22:44:37.548Z,49.84
2019-04-10T22:48:35.855Z,50.00
2019-04-10T22:52:42.212Z,49.90
2019-04-10T22:56:47.808Z,50.82
2019-04-10T23:00:53.878Z,50.94
2019-04-10T23:04:59.787Z,50.57
2019-04-10T23:09:09.709Z,50.73
2019-04-10T23:13:16.065Z,50.63
2019-04-10T23:17:21.498Z,50.78
2019-04-10T23:21:26.752Z,51.01
2019-04-10T23:25:32.157Z,50.91
2019-04-10T23:29:38.171Z,51.01
2019-04-10T23:33:44.025Z,51.48
2019-04-10T23:37:49.182Z,51.95
2019-04-10T23:41:54.837Z,52.28
2019-04-10T23:46:00.031Z,52.24
2019-04-10T23:50:06.028Z,52.81
2019-04-10T23:54:11.241Z,52.81
2019-04-10T23:58:16.455Z,53.07
